Latest Weather Observations for Roma

IDQ60801

Issued at 10:02 am EST Tuesday 23 December 2014 (issued every 30 minutes, with the page automatically refreshed every 10 minutes)

About weather observations | Map of weather stations | Latest weather observations for QLD | Other Formats
Station Details ID: 043091 Name: ROMA AIRPORT Lat: -26.55 Lon: 148.77 Height: 307.38 m
Data from the previous 72 hours. | See also: Recent months at Roma
Date/Time
EST
Temp
°C
App
Temp
°C
Dew
Point
Rel
Hum
%
Delta-T
°C
Wind Press
QNH
hPa
Press
MSL
hPa
Rain
since 9 am
mm
Dir
 
Spd
km/h
Gust
km/h
Spd
kts
Gust
kts
23/10:00am 26.9 23.9 13.6 44 8.0 NE 22 33 12 18 1016.0 1014.2 0.0
23/09:30am 26.0 23.1 14.1 47 7.1 NE 22 30 12 16 1016.1 1014.3 0.0
23/09:00am 25.1 21.4 13.9 49 6.7 NE 26 35 14 19 1016.4 1014.6 0.0
23/08:30am 24.8 20.9 13.4 49 6.7 NNE 26 33 14 18 1016.5 1014.7 0.0
23/08:00am 24.1 19.7 13.0 50 6.5 NNE 28 35 15 19 1016.3 1014.5 0.0
23/07:30am 23.1 19.1 14.1 57 5.3 NNE 28 39 15 21 1016.2 1014.4 0.0
23/07:00am 22.7 18.9 15.8 65 4.2 NNE 30 39 16 21 1016.0 1014.2 0.0
23/06:30am 21.6 18.6 15.9 70 3.5 NNE 26 37 14 20 1015.5 1013.7 0.0
23/06:00am 20.5 17.8 15.7 74 2.9 NNE 24 30 13 16 1015.4 1013.6 0.0
23/05:30am 20.5 17.0 15.5 73 3.0 NE 28 37 15 20 1015.2 1013.3 0.0
23/05:00am 20.5 17.3 15.3 72 3.1 NE 26 37 14 20 1014.8 1012.9 0.0
23/04:30am 20.7 17.2 15.5 72 3.1 NE 28 39 15 21 1014.3 1012.4 0.0
23/04:00am 21.1 17.6 15.4 70 3.4 NNE 28 39 15 21 1014.2 1012.3 0.0
23/03:30am 21.6 18.1 15.4 68 3.7 NE 28 39 15 21 1013.9 1012.0 0.0
23/03:00am 21.6 19.5 15.2 67 3.8 NE 20 28 11 15 1013.7 1011.8 0.0
23/02:30am 21.7 19.6 15.1 66 4.0 NE 20 30 11 16 1013.8 1011.9 0.0
23/02:00am 22.3 19.0 14.9 63 4.4 NE 26 37 14 20 1014.0 1012.1 0.0
23/01:30am 22.8 20.3 15.1 62 4.6 NE 22 32 12 17 1014.0 1012.1 0.0
23/01:00am 20.8 20.9 16.6 77 2.6 N 11 11 6 6 1014.3 1012.4 0.0
23/12:30am 21.0 21.1 16.6 76 2.7 N 11 13 6 7 1014.3 1012.4 0.0
23/12:00am 21.3 21.4 16.5 74 2.9 NNE 11 13 6 7 1014.4 1012.5 0.0
 
Date/Time
EST
Temp
°C
App
Temp
°C
Dew
Point
Rel
Hum
%
Delta-T
°C
Wind Press
QNH
hPa
Press
MSL
hPa
Rain
since 9 am
mm
Dir
 
Spd
km/h
Gust
km/h
Spd
kts
Gust
kts
22/11:30pm 21.5 21.8 16.9 75 2.8 N 11 13 6 7 1014.5 1012.6 0.0
22/11:00pm 22.1 21.9 16.8 72 3.3 N 13 13 7 7 1014.7 1012.8 0.0
22/10:30pm 22.3 22.5 16.8 71 3.4 N 11 11 6 6 1014.8 1012.9 0.0
22/10:00pm 23.4 23.2 16.7 66 4.2 NNE 13 15 7 8 1014.7 1012.8 0.0
22/09:30pm 23.8 23.8 17.1 66 4.2 NNE 13 15 7 8 1014.6 1012.7 0.0
22/09:00pm 23.2 23.6 17.2 69 3.7 N 11 13 6 7 1014.4 1012.5 0.0
22/08:00pm 25.2 25.0 16.6 59 5.4 NE 13 17 7 9 1014.2 1012.3 0.0
22/07:30pm 26.3 25.6 16.3 54 6.2 NE 15 19 8 10 1014.1 1012.2 0.0
22/07:00pm 27.2 26.4 16.2 51 6.9 NNE 15 20 8 11 1013.9 1012.0 0.0
22/06:30pm 28.5 26.6 15.8 46 7.9 NNE 20 28 11 15 1013.5 1011.7 0.0
22/06:00pm 29.4 27.4 15.5 43 8.7 NNE 20 30 11 16 1013.1 1011.3 0.0
22/05:30pm 29.9 27.2 15.6 42 8.9 NNE 24 32 13 17 1012.9 1011.1 0.0
22/05:00pm 30.4 28.1 15.7 41 9.2 NNE 22 28 12 15 1012.7 1010.9 0.0
22/04:30pm 31.1 29.6 16.7 42 9.2 NNE 20 28 11 15 1012.4 1010.5 0.0
22/04:00pm 31.2 30.3 16.8 42 9.2 NNE 17 26 9 14 1012.5 1010.7 0.0
22/03:30pm 31.5 29.9 15.9 39 9.8 NE 19 26 10 14 1012.7 1010.9 0.0
22/03:00pm 31.3 30.0 16.8 41 9.3 NE 19 28 10 15 1013.4 1011.6 0.0
22/02:30pm 30.8 29.0 16.0 40 9.3 NNE 20 35 11 19 1013.8 1011.9 0.0
22/02:00pm 30.5 29.3 17.6 46 8.3 NNE 20 30 11 16 1014.2 1012.3 0.0
22/01:30pm 30.1 29.0 17.2 46 8.3 NNE 19 26 10 14 1014.6 1012.7 0.0
22/01:00pm 30.0 28.5 16.8 45 8.4 NNE 20 30 11 16 1015.0 1013.1 0.0
22/12:30pm 29.7 28.2 17.8 48 7.7 NE 22 32 12 17 1015.4 1013.6 0.0
22/12:00pm 29.1 27.6 18.5 52 6.9 NE 24 33 13 18 1015.5 1013.7 0.0
22/11:30am 28.5 26.6 18.6 55 6.4 NE 26 33 14 18 1016.1 1014.3 0.0
22/11:00am 27.6 25.7 18.6 58 5.8 NE 26 37 14 20 1016.5 1014.7 0.0
22/10:30am 27.1 25.7 18.9 61 5.3 NNE 24 32 13 17 1016.9 1015.1 0.0
22/10:00am 25.8 23.3 17.2 59 5.4 NE 26 33 14 18 1017.4 1015.5 0.0
22/09:30am 24.6 22.2 17.3 64 4.6 NNE 26 32 14 17 1017.6 1015.7 0.0
22/09:00am 24.8 22.1 17.5 64 4.6 NNE 28 39 15 21 1017.5 1015.6 0.0
22/08:30am 23.7 20.4 17.0 66 4.2 NNE 30 39 16 21 1017.4 1015.5 0.0
22/08:00am 23.9 20.7 16.4 63 4.6 NNE 28 37 15 20 1017.3 1015.4 0.0
22/07:30am 23.3 20.1 16.4 65 4.3 NNE 28 35 15 19 1017.2 1015.3 0.0
22/07:00am 21.9 20.3 16.6 72 3.3 NE 20 26 11 14 1016.6 1014.8 0.0
22/06:30am 20.9 19.4 16.7 77 2.6 ENE 20 26 11 14 1016.2 1014.4 0.0
22/06:00am 20.0 18.4 16.6 81 2.1 ENE 20 28 11 15 1015.6 1013.8 0.0
22/05:30am 20.1 19.5 16.7 81 2.1 E 15 20 8 11 1015.3 1013.4 0.0
22/05:00am 19.6 19.4 16.8 84 1.7 E 13 15 7 8 1014.7 1012.8 0.0
22/04:30am 20.0 19.5 17.0 83 1.8 ENE 15 20 8 11 1014.3 1012.4 0.0
22/04:00am 20.3 19.1 17.1 82 2.0 NNE 19 22 10 12 1013.2 1011.4 0.0
22/03:30am 20.5 19.1 16.9 80 2.2 N 20 30 11 16 1013.3 1011.5 0.0
22/03:00am 20.6 18.7 16.8 79 2.3 N 22 28 12 15 1013.5 1011.7 0.0
22/02:30am 20.4 18.4 16.4 78 2.4 NNE 22 33 12 18 1013.7 1011.8 0.0
22/02:00am 20.7 18.3 16.3 76 2.7 NNE 24 35 13 19 1014.0 1012.1 0.0
22/01:30am 21.0 17.3 16.0 73 3.0 NNE 30 41 16 22 1014.3 1012.4 0.0
22/01:00am 21.1 17.0 15.9 72 3.2 NNE 32 48 17 26 1014.4 1012.5 0.0
22/12:52am 21.4 17.2 15.7 70 3.5 NNE 32 46 17 25 1014.4 1012.5 0.0
22/12:30am 21.9 18.8 15.7 68 3.8 NNE 26 39 14 21 1014.6 1012.7 0.0
22/12:00am 22.3 18.9 15.9 67 3.9 NE 28 41 15 22 1014.8 1012.9 0.0
 
Date/Time
EST
Temp
°C
App
Temp
°C
Dew
Point
Rel
Hum
%
Delta-T
°C
Wind Press
QNH
hPa
Press
MSL
hPa
Rain
since 9 am
mm
Dir
 
Spd
km/h
Gust
km/h
Spd
kts
Gust
kts
21/11:30pm 21.9 20.2 17.3 75 2.9 ENE 22 32 12 17 1015.0 1013.1 0.0
21/11:00pm 22.1 20.9 17.5 75 2.9 E 20 26 11 14 1015.5 1013.7 0.0
21/10:30pm 22.1 21.9 17.7 76 2.8 NE 15 20 8 11 1015.2 1013.3 0.0
21/10:00pm 22.7 20.7 17.4 72 3.3 NE 24 30 13 16 1014.8 1012.9 0.0
21/09:30pm 22.5 21.7 17.2 72 3.3 NNE 17 24 9 13 1015.5 1013.7 0.0
21/09:00pm 22.8 21.5 17.3 71 3.4 NE 20 30 11 16 1015.0 1013.1 0.0
21/08:30pm 24.0 23.2 16.0 61 4.9 ENE 15 20 8 11 1014.9 1013.0 0.0
21/08:00pm 24.6 20.3 15.5 57 5.6 ESE 32 50 17 27 1014.3 1012.4 0.0
21/07:41pm 26.5 24.4 15.2 49 6.9 ESE 20 46 11 25 1013.8 1011.9 0.0
21/07:30pm 28.4 28.3 16.0 47 7.7 NE 11 17 6 9 1012.9 1011.1 0.0
21/07:00pm 28.8 28.2 15.7 45 8.2 NNW 13 15 7 8 1012.5 1010.7 0.0
21/06:30pm 30.2 28.1 14.7 39 9.6 NNE 19 24 10 13 1011.7 1009.8 0.0
21/06:00pm 30.8 28.4 14.4 36 10.1 N 20 26 11 14 1011.7 1009.8 0.0
21/05:30pm 31.8 29.1 13.5 32 11.2 N 20 28 11 15 1011.3 1009.4 0.0
21/05:00pm 32.5 30.0 14.1 32 11.4 N 20 28 11 15 1011.3 1009.4 0.0
21/04:30pm 32.6 30.2 13.8 32 11.5 N 19 28 10 15 1011.5 1009.6 0.0
21/04:00pm 33.4 31.9 15.4 34 11.4 NNW 17 20 9 11 1011.7 1009.8 0.0
21/03:30pm 32.1 30.3 13.3 31 11.4 N 15 22 8 12 1012.0 1010.1 0.0
21/03:00pm 33.2 31.5 14.8 33 11.5 N 17 26 9 14 1012.6 1010.8 0.0
21/02:30pm 32.3 30.5 14.4 33 11.1 N 17 28 9 15 1013.2 1011.4 0.0
21/02:00pm 32.4 30.0 14.5 33 11.1 N 20 30 11 16 1013.7 1011.8 0.0
21/01:30pm 32.2 29.0 14.3 33 11.1 NNW 24 32 13 17 1014.0 1012.1 0.0
21/01:00pm 32.0 29.7 14.6 34 10.8 N 20 28 11 15 1014.5 1012.6 0.0
21/12:30pm 31.8 29.2 14.9 36 10.5 N 22 35 12 19 1014.9 1013.0 0.0
21/12:00pm 31.0 28.4 15.8 40 9.6 N 24 35 13 19 1015.3 1013.4 0.0
21/11:30am 30.3 27.7 16.0 42 9.0 NNE 24 37 13 20 1015.7 1013.9 0.0
21/11:00am 29.5 27.1 16.3 45 8.3 N 24 33 13 18 1016.2 1014.4 0.0
21/10:30am 28.7 26.0 16.6 48 7.6 NNE 26 35 14 19 1016.5 1014.7 0.0
21/10:00am 27.9 24.5 15.9 48 7.5 NNE 28 35 15 19 1016.7 1014.9 0.0
21/09:30am 26.9 23.9 16.8 54 6.4 NNE 28 39 15 21 1016.7 1014.9 0.0
21/09:00am 26.2 22.3 16.4 54 6.1 NNE 32 43 17 23 1016.8 1015.0 0.0
21/08:30am 25.8 22.5 16.9 58 5.6 NNE 30 39 16 21 1016.9 1015.1 0.0
21/08:00am 25.3 21.8 17.5 62 4.9 NNE 32 41 17 22 1017.1 1015.2 0.0
21/07:30am 24.7 22.8 17.7 65 4.4 NNE 24 33 13 18 1016.9 1015.1 0.0
21/07:00am 24.1 21.9 17.8 68 4.0 NNE 26 33 14 18 1016.5 1014.7 0.0
21/06:30am 22.8 21.0 17.9 74 3.1 NNE 24 37 13 20 1015.9 1014.1 0.0
21/06:00am 22.4 20.4 17.5 74 3.1 NNE 24 35 13 19 1015.1 1013.2 0.0
21/05:30am 22.3 20.4 17.7 75 2.9 NE 24 35 13 19 1014.7 1012.8 0.0
21/05:00am 22.3 20.3 17.4 74 3.1 NE 24 35 13 19 1014.2 1012.3 0.0
21/04:30am 22.5 20.7 17.0 71 3.4 NE 22 32 12 17 1013.7 1011.8 0.0
21/04:00am 22.8 20.6 17.0 70 3.6 NE 24 35 13 19 1013.1 1011.3 0.0
21/03:30am 23.0 21.3 17.2 70 3.6 NE 22 30 12 16 1012.7 1010.9 0.0
21/03:00am 22.4 22.5 17.5 74 3.1 NNE 13 22 7 12 1012.4 1010.5 0.0
21/02:30am 22.6 21.7 16.9 70 3.5 NE 17 22 9 12 1012.1 1010.2 0.0
21/02:00am 22.8 20.8 15.6 64 4.4 ENE 20 28 11 15 1012.1 1010.2 0.0
21/01:30am 22.6 21.3 15.9 66 4.1 E 17 20 9 11 1012.3 1010.4 0.0
21/01:00am 21.0 21.4 15.3 70 3.4 NNW 7 13 4 7 1012.0 1010.1 0.0
21/12:30am 22.9 23.0 14.5 59 5.0 SW 7 11 4 6 1012.3 1010.4 0.0
21/12:00am 21.3 21.0 15.4 69 3.6 S 11 20 6 11 1012.5 1010.7 0.0
 
Date/Time
EST
Temp
°C
App
Temp
°C
Dew
Point
Rel
Hum
%
Delta-T
°C
Wind Press
QNH
hPa
Press
MSL
hPa
Rain
since 9 am
mm
Dir
 
Spd
km/h
Gust
km/h
Spd
kts
Gust
kts
20/11:30pm 21.7 21.0 15.3 67 3.9 N 13 15 7 8 1012.4 1010.5 0.0
20/11:00pm 21.6 20.9 15.4 68 3.7 N 13 15 7 8 1012.5 1010.7 0.0
20/10:30pm 22.7 22.4 15.5 64 4.4 NNE 11 13 6 7 1012.7 1010.9 0.0
20/10:00pm 22.4 22.2 15.7 66 4.1 N 11 13 6 7 1012.6 1010.8 0.0
20/09:30pm 23.5 23.5 16.3 64 4.4 NNE 11 11 6 6 1012.4 1010.5 0.0
20/09:00pm 23.6 23.7 16.4 64 4.5 NNE 11 11 6 6 1012.4 1010.5 0.0
20/08:30pm 24.2 23.6 15.7 59 5.2 N 13 13 7 7 1012.2 1010.3 0.0
20/08:00pm 26.0 26.7 16.0 54 6.2 N 7 15 4 8 1012.2 1010.3 0.0
20/07:30pm 28.1 29.2 13.6 41 8.7 CALM 0 4 0 2 1011.9 1010.0 0.0
20/07:00pm 29.5 29.1 12.9 36 9.9 NE 7 7 4 4 1011.6 1009.7 0.0
20/06:30pm 31.1 30.8 13.4 34 10.7 NNE 7 9 4 5 1011.3 1009.4 0.0
20/06:00pm 32.9 30.9 7.0 20 14.4 NNE 7 13 4 7 1011.0 1009.1 0.0
20/05:30pm 33.4 29.8 5.0 17 15.3 NW 13 17 7 9 1010.7 1008.8 0.0
20/05:00pm 33.5 31.4 8.2 21 14.3 NNW 9 15 5 8 1010.5 1008.6 0.0
20/04:30pm 33.9 31.3 7.8 20 14.7 NNE 11 17 6 9 1010.4 1008.5 0.0
20/04:00pm 34.6 30.5 6.0 17 15.7 NW 17 26 9 14 1010.4 1008.5 0.0
20/03:30pm 34.6 32.3 9.1 21 14.7 NNW 11 20 6 11 1010.6 1008.7 0.0
20/03:00pm 34.6 32.2 6.8 18 15.5 NNW 9 15 5 8 1010.9 1009.0 0.0
20/02:30pm 33.9 31.0 6.3 18 15.2 N 11 19 6 10 1011.4 1009.5 0.0
20/02:00pm 34.0 30.7 6.3 18 15.3 NNW 13 24 7 13 1011.9 1010.0 0.0
20/01:30pm 34.5 32.6 9.0 21 14.7 NW 9 15 5 8 1012.2 1010.3 0.0
20/01:00pm 33.6 31.4 6.0 18 15.1 NNE 7 11 4 6 1012.6 1010.8 0.0
20/12:30pm 33.8 30.3 7.0 19 14.9 NW 15 24 8 13 1013.1 1011.3 0.0
20/12:00pm 33.5 29.9 8.2 21 14.3 NNW 17 22 9 12 1013.5 1011.7 0.0
20/11:30am 32.5 29.2 8.0 22 13.8 N 15 28 8 15 1013.8 1011.9 0.0
20/11:00am 32.3 29.6 10.4 26 12.8 N 15 22 8 12 1014.3 1012.4 0.0
20/10:30am 31.4 29.9 10.7 28 12.1 N 9 17 5 9 1014.4 1012.5 0.0

Other Formats:

Comma delimited format used in spreadsheet applications
http://www.bom.gov.au/fwo/IDQ60801/IDQ60801.94515.axf

JavaScript Object Notation format (JSON) in row-major order
http://www.bom.gov.au/fwo/IDQ60801/IDQ60801.94515.json